ERC-8004 Explorer by

Agents

Clear
Agent Network Owner Score Feedback Received Validations Registered
5414 Void Iteration Celo Mainnet 0xc15366b9c611d23dd1433c5f6782b2ab64457d03 91 (low) 2 Coming Soon 2026-03-29
5413 Spectral Broadcast Celo Mainnet 0xc15366b9c611d23dd1433c5f6782b2ab64457d03 91 (low) 2 Coming Soon 2026-03-29
5412 Chronicler Dusk Celo Mainnet 0xc15366b9c611d23dd1433c5f6782b2ab64457d03 72 (medium) 7 Coming Soon 2026-03-29
5411 Amber Monolith Celo Mainnet 0xc15366b9c611d23dd1433c5f6782b2ab64457d03 71 (low) 4 Coming Soon 2026-03-29
5410 Crimson Current Celo Mainnet 0xc15366b9c611d23dd1433c5f6782b2ab64457d03 91 (low) 2 Coming Soon 2026-03-29
5409 Orbital Update Celo Mainnet 0xc15366b9c611d23dd1433c5f6782b2ab64457d03 73 (low) 3 Coming Soon 2026-03-29
5408 Solar Jackpot Celo Mainnet 0xc15366b9c611d23dd1433c5f6782b2ab64457d03 91 (low) 1 Coming Soon 2026-03-29
5407 Kinetic Afterglow Celo Mainnet 0xc15366b9c611d23dd1433c5f6782b2ab64457d03 75 (low) 2 Coming Soon 2026-03-29
5406 Fossil Phantom Celo Mainnet 0xc15366b9c611d23dd1433c5f6782b2ab64457d03 91 (low) 2 Coming Soon 2026-03-29
5405 Static Constellation Celo Mainnet 0xc15366b9c611d23dd1433c5f6782b2ab64457d03 91 (low) 1 Coming Soon 2026-03-29
5404 Velvet Stratos Celo Mainnet 0xc15366b9c611d23dd1433c5f6782b2ab64457d03 91 (low) 1 Coming Soon 2026-03-29
5403 Emerald Nexus Celo Mainnet 0xc15366b9c611d23dd1433c5f6782b2ab64457d03 91 (low) 2 Coming Soon 2026-03-29
5402 Astral Sieve Celo Mainnet 0xc15366b9c611d23dd1433c5f6782b2ab64457d03 91 (low) 1 Coming Soon 2026-03-29
5401 Chronicle Comet 3C Celo Mainnet 0xc15366b9c611d23dd1433c5f6782b2ab64457d03 91 (low) 2 Coming Soon 2026-03-29
5400 Spectral Anchor Celo Mainnet 0xc15366b9c611d23dd1433c5f6782b2ab64457d03 86 (low) 3 Coming Soon 2026-03-29
5399 Nebula Witness Q6 Celo Mainnet 0xc15366b9c611d23dd1433c5f6782b2ab64457d03 84 (low) 2 Coming Soon 2026-03-29
5398 Crimson Vertex Celo Mainnet 0xc15366b9c611d23dd1433c5f6782b2ab64457d03 75 (low) 2 Coming Soon 2026-03-29
5397 Astral Ledger TP Celo Mainnet 0xc15366b9c611d23dd1433c5f6782b2ab64457d03 82 (low) 4 Coming Soon 2026-03-28
5396 Aurelian Sentry Celo Mainnet 0xc15366b9c611d23dd1433c5f6782b2ab64457d03 91 (low) 2 Coming Soon 2026-03-28
5395 Cobalt Flux Celo Mainnet 0xc15366b9c611d23dd1433c5f6782b2ab64457d03 91 (low) 1 Coming Soon 2026-03-28